sensor_id;sensor_type;location;lat;lon;timestamp;P1;durP1;ratioP1;P2;durP2;ratioP2
57663;SDS011;43493;53.098;6.064;2023-05-07T00:01:28;16.00;;;13.40;;
57663;SDS011;43493;53.098;6.064;2023-05-07T00:03:53;18.33;;;13.47;;
57663;SDS011;43493;53.098;6.064;2023-05-07T00:06:19;17.90;;;14.03;;
57663;SDS011;43493;53.098;6.064;2023-05-07T00:08:45;18.07;;;13.63;;
57663;SDS011;43493;53.098;6.064;2023-05-07T00:11:10;17.37;;;13.80;;
57663;SDS011;43493;53.098;6.064;2023-05-07T00:13:36;16.77;;;13.70;;
57663;SDS011;43493;53.098;6.064;2023-05-07T00:16:02;15.93;;;14.20;;
57663;SDS011;43493;53.098;6.064;2023-05-07T00:18:28;17.73;;;13.83;;
57663;SDS011;43493;53.098;6.064;2023-05-07T00:20:54;19.23;;;14.93;;
57663;SDS011;43493;53.098;6.064;2023-05-07T00:23:21;17.10;;;13.33;;
57663;SDS011;43493;53.098;6.064;2023-05-07T00:25:47;18.67;;;14.20;;
57663;SDS011;43493;53.098;6.064;2023-05-07T00:28:13;17.27;;;14.40;;
57663;SDS011;43493;53.098;6.064;2023-05-07T00:30:39;18.53;;;14.27;;
57663;SDS011;43493;53.098;6.064;2023-05-07T00:33:04;18.67;;;15.03;;
57663;SDS011;43493;53.098;6.064;2023-05-07T00:35:30;18.87;;;14.57;;
57663;SDS011;43493;53.098;6.064;2023-05-07T00:37:56;17.23;;;14.90;;
57663;SDS011;43493;53.098;6.064;2023-05-07T00:40:21;20.30;;;16.07;;
57663;SDS011;43493;53.098;6.064;2023-05-07T00:42:48;20.53;;;15.43;;
57663;SDS011;43493;53.098;6.064;2023-05-07T00:45:15;17.83;;;14.57;;
57663;SDS011;43493;53.098;6.064;2023-05-07T00:47:41;22.00;;;15.57;;
57663;SDS011;43493;53.098;6.064;2023-05-07T00:50:08;20.23;;;14.70;;
57663;SDS011;43493;53.098;6.064;2023-05-07T00:52:36;18.00;;;14.90;;
57663;SDS011;43493;53.098;6.064;2023-05-07T00:55:04;18.27;;;14.70;;
57663;SDS011;43493;53.098;6.064;2023-05-07T00:57:37;19.27;;;15.63;;
57663;SDS011;43493;53.098;6.064;2023-05-07T01:00:06;19.53;;;14.97;;
57663;SDS011;43493;53.098;6.064;2023-05-07T01:02:37;18.93;;;15.40;;
57663;SDS011;43493;53.098;6.064;2023-05-07T01:05:04;18.93;;;15.77;;
57663;SDS011;43493;53.098;6.064;2023-05-07T01:07:32;17.30;;;15.00;;
57663;SDS011;43493;53.098;6.064;2023-05-07T01:09:59;19.20;;;15.67;;
57663;SDS011;43493;53.098;6.064;2023-05-07T01:12:26;21.93;;;15.37;;
57663;SDS011;43493;53.098;6.064;2023-05-07T01:14:53;20.77;;;15.63;;
57663;SDS011;43493;53.098;6.064;2023-05-07T01:17:19;19.43;;;15.93;;
57663;SDS011;43493;53.098;6.064;2023-05-07T01:19:45;22.37;;;15.83;;
57663;SDS011;43493;53.098;6.064;2023-05-07T01:22:12;21.67;;;16.57;;
57663;SDS011;43493;53.098;6.064;2023-05-07T01:24:41;19.07;;;16.17;;
57663;SDS011;43493;53.098;6.064;2023-05-07T01:27:07;20.60;;;16.03;;
57663;SDS011;43493;53.098;6.064;2023-05-07T01:29:33;21.67;;;16.43;;
57663;SDS011;43493;53.098;6.064;2023-05-07T01:32:00;20.90;;;16.67;;
57663;SDS011;43493;53.098;6.064;2023-05-07T01:34:27;21.67;;;16.60;;
57663;SDS011;43493;53.098;6.064;2023-05-07T01:36:55;19.80;;;17.53;;
57663;SDS011;43493;53.098;6.064;2023-05-07T01:39:27;22.67;;;17.03;;
57663;SDS011;43493;53.098;6.064;2023-05-07T01:41:55;23.53;;;18.53;;
57663;SDS011;43493;53.098;6.064;2023-05-07T01:44:21;22.57;;;18.00;;
57663;SDS011;43493;53.098;6.064;2023-05-07T01:46:47;23.70;;;19.00;;
57663;SDS011;43493;53.098;6.064;2023-05-07T01:49:14;20.87;;;17.83;;
57663;SDS011;43493;53.098;6.064;2023-05-07T01:51:40;21.40;;;17.27;;
57663;SDS011;43493;53.098;6.064;2023-05-07T01:54:06;24.57;;;19.90;;
57663;SDS011;43493;53.098;6.064;2023-05-07T01:56:33;22.30;;;19.03;;
57663;SDS011;43493;53.098;6.064;2023-05-07T01:58:59;22.63;;;19.27;;
57663;SDS011;43493;53.098;6.064;2023-05-07T02:01:25;25.87;;;20.70;;
57663;SDS011;43493;53.098;6.064;2023-05-07T02:03:51;27.63;;;21.33;;
57663;SDS011;43493;53.098;6.064;2023-05-07T02:06:17;24.93;;;20.20;;
57663;SDS011;43493;53.098;6.064;2023-05-07T02:08:42;24.80;;;21.87;;
57663;SDS011;43493;53.098;6.064;2023-05-07T02:11:08;26.23;;;20.23;;
57663;SDS011;43493;53.098;6.064;2023-05-07T02:13:34;26.97;;;20.10;;
57663;SDS011;43493;53.098;6.064;2023-05-07T02:16:00;23.83;;;19.83;;
57663;SDS011;43493;53.098;6.064;2023-05-07T02:18:26;23.43;;;19.40;;
57663;SDS011;43493;53.098;6.064;2023-05-07T02:20:52;25.33;;;20.80;;
57663;SDS011;43493;53.098;6.064;2023-05-07T02:23:17;24.27;;;20.93;;
57663;SDS011;43493;53.098;6.064;2023-05-07T02:25:43;27.03;;;21.17;;
57663;SDS011;43493;53.098;6.064;2023-05-07T02:28:09;26.27;;;20.43;;
57663;SDS011;43493;53.098;6.064;2023-05-07T02:30:35;23.90;;;19.80;;
57663;SDS011;43493;53.098;6.064;2023-05-07T02:33:02;26.37;;;21.23;;
57663;SDS011;43493;53.098;6.064;2023-05-07T02:35:28;29.10;;;21.13;;
57663;SDS011;43493;53.098;6.064;2023-05-07T02:37:53;28.57;;;22.20;;
57663;SDS011;43493;53.098;6.064;2023-05-07T02:40:19;26.77;;;20.80;;
57663;SDS011;43493;53.098;6.064;2023-05-07T02:42:45;29.90;;;21.80;;
57663;SDS011;43493;53.098;6.064;2023-05-07T02:45:11;26.47;;;21.57;;
57663;SDS011;43493;53.098;6.064;2023-05-07T02:47:36;28.67;;;22.37;;
57663;SDS011;43493;53.098;6.064;2023-05-07T02:50:02;24.10;;;21.30;;
57663;SDS011;43493;53.098;6.064;2023-05-07T02:52:28;26.93;;;21.27;;
57663;SDS011;43493;53.098;6.064;2023-05-07T02:54:54;28.30;;;22.60;;
57663;SDS011;43493;53.098;6.064;2023-05-07T02:57:20;26.43;;;21.97;;
57663;SDS011;43493;53.098;6.064;2023-05-07T02:59:46;28.07;;;21.33;;
57663;SDS011;43493;53.098;6.064;2023-05-07T03:02:11;23.63;;;20.93;;
57663;SDS011;43493;53.098;6.064;2023-05-07T03:04:37;26.73;;;23.20;;
57663;SDS011;43493;53.098;6.064;2023-05-07T03:07:04;26.27;;;21.63;;
57663;SDS011;43493;53.098;6.064;2023-05-07T03:09:30;28.93;;;22.67;;
57663;SDS011;43493;53.098;6.064;2023-05-07T03:11:56;26.70;;;22.23;;
57663;SDS011;43493;53.098;6.064;2023-05-07T03:14:22;26.93;;;21.30;;
57663;SDS011;43493;53.098;6.064;2023-05-07T03:16:48;27.43;;;21.77;;
57663;SDS011;43493;53.098;6.064;2023-05-07T03:19:15;29.23;;;22.57;;
57663;SDS011;43493;53.098;6.064;2023-05-07T03:21:40;27.77;;;21.87;;
57663;SDS011;43493;53.098;6.064;2023-05-07T03:24:06;28.83;;;22.97;;
57663;SDS011;43493;53.098;6.064;2023-05-07T03:26:32;28.93;;;23.30;;
57663;SDS011;43493;53.098;6.064;2023-05-07T03:28:58;28.13;;;21.60;;
57663;SDS011;43493;53.098;6.064;2023-05-07T03:31:23;29.40;;;22.87;;
57663;SDS011;43493;53.098;6.064;2023-05-07T03:33:53;28.23;;;23.43;;
57663;SDS011;43493;53.098;6.064;2023-05-07T03:36:20;29.97;;;23.07;;
57663;SDS011;43493;53.098;6.064;2023-05-07T03:38:46;26.83;;;22.27;;
57663;SDS011;43493;53.098;6.064;2023-05-07T03:41:12;30.07;;;23.80;;
57663;SDS011;43493;53.098;6.064;2023-05-07T03:43:38;30.83;;;24.83;;
57663;SDS011;43493;53.098;6.064;2023-05-07T03:46:04;27.13;;;24.13;;
57663;SDS011;43493;53.098;6.064;2023-05-07T03:48:30;27.67;;;22.67;;
57663;SDS011;43493;53.098;6.064;2023-05-07T03:50:56;31.37;;;25.93;;
57663;SDS011;43493;53.098;6.064;2023-05-07T03:53:22;31.97;;;24.20;;
57663;SDS011;43493;53.098;6.064;2023-05-07T03:55:48;32.03;;;24.70;;
57663;SDS011;43493;53.098;6.064;2023-05-07T03:58:14;28.13;;;23.07;;
57663;SDS011;43493;53.098;6.064;2023-05-07T04:00:40;30.47;;;24.23;;
57663;SDS011;43493;53.098;6.064;2023-05-07T04:03:06;28.77;;;23.97;;
57663;SDS011;43493;53.098;6.064;2023-05-07T04:05:32;28.93;;;24.10;;
57663;SDS011;43493;53.098;6.064;2023-05-07T04:07:58;34.57;;;25.67;;
57663;SDS011;43493;53.098;6.064;2023-05-07T04:10:24;29.50;;;24.67;;
57663;SDS011;43493;53.098;6.064;2023-05-07T04:12:51;33.57;;;25.87;;
57663;SDS011;43493;53.098;6.064;2023-05-07T04:15:16;34.00;;;26.43;;
57663;SDS011;43493;53.098;6.064;2023-05-07T04:17:42;34.53;;;26.17;;
57663;SDS011;43493;53.098;6.064;2023-05-07T04:20:08;35.13;;;27.80;;
57663;SDS011;43493;53.098;6.064;2023-05-07T04:22:35;32.97;;;26.83;;
57663;SDS011;43493;53.098;6.064;2023-05-07T04:25:02;36.87;;;28.57;;
57663;SDS011;43493;53.098;6.064;2023-05-07T04:27:28;35.50;;;27.70;;
57663;SDS011;43493;53.098;6.064;2023-05-07T04:29:54;38.43;;;27.47;;
57663;SDS011;43493;53.098;6.064;2023-05-07T04:32:21;37.03;;;27.33;;
57663;SDS011;43493;53.098;6.064;2023-05-07T04:34:47;37.80;;;28.70;;
57663;SDS011;43493;53.098;6.064;2023-05-07T04:37:12;34.33;;;27.17;;
57663;SDS011;43493;53.098;6.064;2023-05-07T04:39:38;34.70;;;26.53;;
57663;SDS011;43493;53.098;6.064;2023-05-07T04:42:04;35.27;;;27.50;;
57663;SDS011;43493;53.098;6.064;2023-05-07T04:44:34;40.43;;;29.20;;
57663;SDS011;43493;53.098;6.064;2023-05-07T04:47:00;41.53;;;30.50;;
57663;SDS011;43493;53.098;6.064;2023-05-07T04:49:26;35.37;;;28.33;;
57663;SDS011;43493;53.098;6.064;2023-05-07T04:51:52;38.60;;;29.80;;
57663;SDS011;43493;53.098;6.064;2023-05-07T04:54:17;39.40;;;30.57;;
57663;SDS011;43493;53.098;6.064;2023-05-07T04:56:43;39.13;;;30.23;;
57663;SDS011;43493;53.098;6.064;2023-05-07T04:59:09;39.27;;;29.60;;
57663;SDS011;43493;53.098;6.064;2023-05-07T05:01:34;37.90;;;29.43;;
57663;SDS011;43493;53.098;6.064;2023-05-07T05:04:00;37.37;;;28.77;;
57663;SDS011;43493;53.098;6.064;2023-05-07T05:06:26;39.70;;;31.47;;
57663;SDS011;43493;53.098;6.064;2023-05-07T05:08:51;40.10;;;30.77;;
57663;SDS011;43493;53.098;6.064;2023-05-07T05:11:17;41.73;;;30.40;;
57663;SDS011;43493;53.098;6.064;2023-05-07T05:13:43;39.70;;;30.70;;
57663;SDS011;43493;53.098;6.064;2023-05-07T05:16:08;37.10;;;29.33;;
57663;SDS011;43493;53.098;6.064;2023-05-07T05:18:34;42.63;;;29.80;;
57663;SDS011;43493;53.098;6.064;2023-05-07T05:21:00;38.40;;;29.83;;
57663;SDS011;43493;53.098;6.064;2023-05-07T05:23:26;39.97;;;29.10;;
57663;SDS011;43493;53.098;6.064;2023-05-07T05:25:55;39.37;;;31.00;;
57663;SDS011;43493;53.098;6.064;2023-05-07T05:28:22;38.23;;;29.67;;
57663;SDS011;43493;53.098;6.064;2023-05-07T05:30:48;38.37;;;29.90;;
57663;SDS011;43493;53.098;6.064;2023-05-07T05:33:15;37.43;;;28.47;;
57663;SDS011;43493;53.098;6.064;2023-05-07T05:35:41;36.77;;;28.60;;
57663;SDS011;43493;53.098;6.064;2023-05-07T05:38:07;36.57;;;29.87;;
57663;SDS011;43493;53.098;6.064;2023-05-07T05:40:33;33.80;;;28.17;;
57663;SDS011;43493;53.098;6.064;2023-05-07T05:42:59;38.13;;;28.50;;
57663;SDS011;43493;53.098;6.064;2023-05-07T05:45:25;36.07;;;28.27;;
57663;SDS011;43493;53.098;6.064;2023-05-07T05:47:51;36.50;;;28.37;;
57663;SDS011;43493;53.098;6.064;2023-05-07T05:50:16;36.97;;;27.93;;
57663;SDS011;43493;53.098;6.064;2023-05-07T05:52:42;33.63;;;26.60;;
57663;SDS011;43493;53.098;6.064;2023-05-07T05:55:08;33.13;;;26.17;;
57663;SDS011;43493;53.098;6.064;2023-05-07T05:57:34;31.43;;;26.03;;
57663;SDS011;43493;53.098;6.064;2023-05-07T06:00:00;33.00;;;26.53;;
57663;SDS011;43493;53.098;6.064;2023-05-07T06:02:27;34.50;;;26.90;;
57663;SDS011;43493;53.098;6.064;2023-05-07T06:04:53;33.43;;;26.50;;
57663;SDS011;43493;53.098;6.064;2023-05-07T06:07:19;35.27;;;28.37;;
57663;SDS011;43493;53.098;6.064;2023-05-07T06:09:44;34.13;;;26.53;;
57663;SDS011;43493;53.098;6.064;2023-05-07T06:12:11;31.93;;;24.63;;
57663;SDS011;43493;53.098;6.064;2023-05-07T06:14:37;36.50;;;26.47;;
57663;SDS011;43493;53.098;6.064;2023-05-07T06:17:02;33.07;;;26.03;;
57663;SDS011;43493;53.098;6.064;2023-05-07T06:19:28;36.43;;;26.73;;
57663;SDS011;43493;53.098;6.064;2023-05-07T06:21:54;35.90;;;25.13;;
57663;SDS011;43493;53.098;6.064;2023-05-07T06:24:21;34.13;;;25.57;;
57663;SDS011;43493;53.098;6.064;2023-05-07T06:26:47;29.97;;;23.90;;
57663;SDS011;43493;53.098;6.064;2023-05-07T06:29:13;29.83;;;25.10;;
57663;SDS011;43493;53.098;6.064;2023-05-07T06:31:39;27.73;;;24.33;;
57663;SDS011;43493;53.098;6.064;2023-05-07T06:34:05;29.80;;;24.00;;
57663;SDS011;43493;53.098;6.064;2023-05-07T06:36:31;27.80;;;23.70;;
57663;SDS011;43493;53.098;6.064;2023-05-07T06:38:56;29.40;;;25.10;;
57663;SDS011;43493;53.098;6.064;2023-05-07T06:41:22;29.77;;;24.73;;
57663;SDS011;43493;53.098;6.064;2023-05-07T06:43:48;32.17;;;24.70;;
57663;SDS011;43493;53.098;6.064;2023-05-07T06:46:14;27.73;;;23.77;;
57663;SDS011;43493;53.098;6.064;2023-05-07T06:48:40;27.13;;;24.27;;
57663;SDS011;43493;53.098;6.064;2023-05-07T06:51:05;25.53;;;22.30;;
57663;SDS011;43493;53.098;6.064;2023-05-07T06:53:31;28.37;;;23.37;;
57663;SDS011;43493;53.098;6.064;2023-05-07T06:55:57;27.00;;;22.50;;
57663;SDS011;43493;53.098;6.064;2023-05-07T06:58:22;26.03;;;22.20;;
57663;SDS011;43493;53.098;6.064;2023-05-07T07:00:48;27.97;;;21.83;;
57663;SDS011;43493;53.098;6.064;2023-05-07T07:03:14;24.47;;;21.23;;
57663;SDS011;43493;53.098;6.064;2023-05-07T07:05:40;24.93;;;21.60;;
57663;SDS011;43493;53.098;6.064;2023-05-07T07:08:07;24.10;;;20.83;;
57663;SDS011;43493;53.098;6.064;2023-05-07T07:10:32;23.70;;;20.27;;
57663;SDS011;43493;53.098;6.064;2023-05-07T07:12:58;25.10;;;21.07;;
57663;SDS011;43493;53.098;6.064;2023-05-07T07:15:24;24.17;;;20.83;;
57663;SDS011;43493;53.098;6.064;2023-05-07T07:17:51;26.17;;;23.23;;
57663;SDS011;43493;53.098;6.064;2023-05-07T07:20:16;22.77;;;19.87;;
57663;SDS011;43493;53.098;6.064;2023-05-07T07:22:42;25.03;;;21.23;;
57663;SDS011;43493;53.098;6.064;2023-05-07T07:25:08;24.23;;;20.70;;
57663;SDS011;43493;53.098;6.064;2023-05-07T07:27:34;23.00;;;20.30;;
57663;SDS011;43493;53.098;6.064;2023-05-07T07:30:00;23.30;;;20.37;;
57663;SDS011;43493;53.098;6.064;2023-05-07T07:32:26;23.13;;;19.93;;
57663;SDS011;43493;53.098;6.064;2023-05-07T07:34:52;23.63;;;20.73;;
57663;SDS011;43493;53.098;6.064;2023-05-07T07:37:17;22.97;;;19.97;;
57663;SDS011;43493;53.098;6.064;2023-05-07T07:39:43;25.20;;;21.20;;
57663;SDS011;43493;53.098;6.064;2023-05-07T07:42:09;24.63;;;20.87;;
57663;SDS011;43493;53.098;6.064;2023-05-07T07:44:34;22.10;;;19.80;;
57663;SDS011;43493;53.098;6.064;2023-05-07T07:47:00;23.03;;;20.50;;
57663;SDS011;43493;53.098;6.064;2023-05-07T07:49:26;25.63;;;21.10;;
57663;SDS011;43493;53.098;6.064;2023-05-07T07:51:52;24.50;;;19.93;;
57663;SDS011;43493;53.098;6.064;2023-05-07T07:54:18;23.13;;;20.20;;
57663;SDS011;43493;53.098;6.064;2023-05-07T07:56:44;23.67;;;21.07;;
57663;SDS011;43493;53.098;6.064;2023-05-07T07:59:10;23.70;;;19.33;;
57663;SDS011;43493;53.098;6.064;2023-05-07T08:01:35;23.27;;;20.73;;
57663;SDS011;43493;53.098;6.064;2023-05-07T08:04:01;24.23;;;20.60;;
57663;SDS011;43493;53.098;6.064;2023-05-07T08:06:28;23.63;;;20.73;;
57663;SDS011;43493;53.098;6.064;2023-05-07T08:08:54;22.60;;;19.83;;
57663;SDS011;43493;53.098;6.064;2023-05-07T08:11:20;21.70;;;18.87;;
57663;SDS011;43493;53.098;6.064;2023-05-07T08:13:46;24.70;;;20.57;;
57663;SDS011;43493;53.098;6.064;2023-05-07T08:16:12;22.80;;;20.30;;
57663;SDS011;43493;53.098;6.064;2023-05-07T08:18:38;24.33;;;20.10;;
57663;SDS011;43493;53.098;6.064;2023-05-07T08:21:04;21.23;;;18.93;;
57663;SDS011;43493;53.098;6.064;2023-05-07T08:23:30;22.50;;;19.93;;
57663;SDS011;43493;53.098;6.064;2023-05-07T08:25:56;25.77;;;21.00;;
57663;SDS011;43493;53.098;6.064;2023-05-07T08:28:22;25.70;;;21.27;;
57663;SDS011;43493;53.098;6.064;2023-05-07T08:30:49;24.97;;;20.03;;
57663;SDS011;43493;53.098;6.064;2023-05-07T08:33:15;22.37;;;18.80;;
57663;SDS011;43493;53.098;6.064;2023-05-07T08:35:41;23.30;;;19.87;;
57663;SDS011;43493;53.098;6.064;2023-05-07T08:38:07;24.90;;;20.20;;
57663;SDS011;43493;53.098;6.064;2023-05-07T08:40:34;23.70;;;20.50;;
57663;SDS011;43493;53.098;6.064;2023-05-07T08:43:03;22.67;;;19.57;;
57663;SDS011;43493;53.098;6.064;2023-05-07T08:45:33;23.13;;;19.20;;
57663;SDS011;43493;53.098;6.064;2023-05-07T08:48:02;22.37;;;19.97;;
57663;SDS011;43493;53.098;6.064;2023-05-07T08:50:30;21.97;;;19.57;;
57663;SDS011;43493;53.098;6.064;2023-05-07T08:52:56;21.27;;;18.80;;
57663;SDS011;43493;53.098;6.064;2023-05-07T08:55:22;22.57;;;19.80;;
57663;SDS011;43493;53.098;6.064;2023-05-07T08:57:48;21.53;;;18.43;;
57663;SDS011;43493;53.098;6.064;2023-05-07T09:00:15;23.80;;;19.97;;
57663;SDS011;43493;53.098;6.064;2023-05-07T09:02:41;22.87;;;20.50;;
57663;SDS011;43493;53.098;6.064;2023-05-07T09:05:07;23.20;;;19.40;;
57663;SDS011;43493;53.098;6.064;2023-05-07T09:07:33;22.47;;;19.97;;
57663;SDS011;43493;53.098;6.064;2023-05-07T09:10:01;23.00;;;19.53;;
57663;SDS011;43493;53.098;6.064;2023-05-07T09:12:30;24.33;;;20.77;;
57663;SDS011;43493;53.098;6.064;2023-05-07T09:14:56;23.03;;;20.27;;
57663;SDS011;43493;53.098;6.064;2023-05-07T09:17:22;23.90;;;20.00;;
57663;SDS011;43493;53.098;6.064;2023-05-07T09:19:47;22.20;;;19.10;;
57663;SDS011;43493;53.098;6.064;2023-05-07T09:22:13;21.63;;;18.87;;
57663;SDS011;43493;53.098;6.064;2023-05-07T09:24:39;22.27;;;19.40;;
57663;SDS011;43493;53.098;6.064;2023-05-07T09:27:05;24.27;;;20.43;;
57663;SDS011;43493;53.098;6.064;2023-05-07T09:29:31;23.80;;;19.10;;
57663;SDS011;43493;53.098;6.064;2023-05-07T09:32:05;25.33;;;21.07;;
57663;SDS011;43493;53.098;6.064;2023-05-07T09:34:32;24.67;;;21.17;;
57663;SDS011;43493;53.098;6.064;2023-05-07T09:37:04;24.17;;;20.90;;
57663;SDS011;43493;53.098;6.064;2023-05-07T09:39:47;23.83;;;19.47;;
57663;SDS011;43493;53.098;6.064;2023-05-07T09:42:13;24.33;;;20.23;;
57663;SDS011;43493;53.098;6.064;2023-05-07T09:44:44;22.70;;;19.47;;
57663;SDS011;43493;53.098;6.064;2023-05-07T09:47:12;26.60;;;19.90;;
57663;SDS011;43493;53.098;6.064;2023-05-07T09:49:46;23.33;;;20.67;;
57663;SDS011;43493;53.098;6.064;2023-05-07T09:52:13;21.60;;;19.13;;
57663;SDS011;43493;53.098;6.064;2023-05-07T09:54:39;21.57;;;19.23;;
57663;SDS011;43493;53.098;6.064;2023-05-07T09:57:08;25.03;;;21.37;;
57663;SDS011;43493;53.098;6.064;2023-05-07T09:59:37;23.33;;;20.30;;
57663;SDS011;43493;53.098;6.064;2023-05-07T10:02:03;22.73;;;20.13;;
57663;SDS011;43493;53.098;6.064;2023-05-07T10:04:30;22.40;;;20.00;;
57663;SDS011;43493;53.098;6.064;2023-05-07T10:06:56;22.40;;;19.40;;
57663;SDS011;43493;53.098;6.064;2023-05-07T10:09:23;22.97;;;20.47;;
57663;SDS011;43493;53.098;6.064;2023-05-07T10:11:51;22.90;;;19.97;;
57663;SDS011;43493;53.098;6.064;2023-05-07T10:14:19;22.47;;;19.23;;
57663;SDS011;43493;53.098;6.064;2023-05-07T10:16:46;22.60;;;19.83;;
57663;SDS011;43493;53.098;6.064;2023-05-07T10:19:13;22.50;;;19.80;;
57663;SDS011;43493;53.098;6.064;2023-05-07T10:21:43;24.83;;;20.93;;
57663;SDS011;43493;53.098;6.064;2023-05-07T10:24:20;22.37;;;19.00;;
57663;SDS011;43493;53.098;6.064;2023-05-07T10:26:49;24.57;;;20.37;;
57663;SDS011;43493;53.098;6.064;2023-05-07T10:34:41;22.27;;;19.90;;
57663;SDS011;43493;53.098;6.064;2023-05-07T10:37:10;21.90;;;19.40;;
57663;SDS011;43493;53.098;6.064;2023-05-07T10:39:37;22.93;;;19.60;;
57663;SDS011;43493;53.098;6.064;2023-05-07T10:42:09;22.03;;;19.63;;
57663;SDS011;43493;53.098;6.064;2023-05-07T10:44:36;24.77;;;20.27;;
57663;SDS011;43493;53.098;6.064;2023-05-07T10:47:09;23.80;;;20.43;;
57663;SDS011;43493;53.098;6.064;2023-05-07T10:50:21;25.33;;;21.17;;
57663;SDS011;43493;53.098;6.064;2023-05-07T10:52:30;23.77;;;21.17;;
57663;SDS011;43493;53.098;6.064;2023-05-07T10:55:41;24.80;;;20.63;;
57663;SDS011;43493;53.098;6.064;2023-05-07T10:57:46;20.67;;;18.47;;
57663;SDS011;43493;53.098;6.064;2023-05-07T11:05:28;23.17;;;20.57;;
57663;SDS011;43493;53.098;6.064;2023-05-07T11:07:55;22.37;;;19.70;;
57663;SDS011;43493;53.098;6.064;2023-05-07T11:10:22;22.63;;;19.53;;
57663;SDS011;43493;53.098;6.064;2023-05-07T11:12:51;22.27;;;19.87;;
57663;SDS011;43493;53.098;6.064;2023-05-07T11:15:34;22.43;;;19.33;;
57663;SDS011;43493;53.098;6.064;2023-05-07T11:18:01;23.70;;;20.37;;
57663;SDS011;43493;53.098;6.064;2023-05-07T11:26:06;20.13;;;17.93;;
57663;SDS011;43493;53.098;6.064;2023-05-07T11:28:36;21.60;;;19.30;;
57663;SDS011;43493;53.098;6.064;2023-05-07T11:31:03;22.17;;;18.67;;
57663;SDS011;43493;53.098;6.064;2023-05-07T11:33:30;20.60;;;18.40;;
57663;SDS011;43493;53.098;6.064;2023-05-07T11:35:56;21.73;;;18.33;;
57663;SDS011;43493;53.098;6.064;2023-05-07T11:38:23;20.87;;;18.27;;
57663;SDS011;43493;53.098;6.064;2023-05-07T11:43:22;20.93;;;18.73;;
57663;SDS011;43493;53.098;6.064;2023-05-07T11:45:48;19.83;;;17.73;;
57663;SDS011;43493;53.098;6.064;2023-05-07T11:48:15;20.10;;;18.00;;
57663;SDS011;43493;53.098;6.064;2023-05-07T11:53:25;21.50;;;17.37;;
57663;SDS011;43493;53.098;6.064;2023-05-07T11:55:52;18.77;;;16.77;;
57663;SDS011;43493;53.098;6.064;2023-05-07T11:58:24;17.63;;;15.27;;
57663;SDS011;43493;53.098;6.064;2023-05-07T12:03:19;20.00;;;16.77;;
57663;SDS011;43493;53.098;6.064;2023-05-07T12:05:46;19.90;;;17.13;;
57663;SDS011;43493;53.098;6.064;2023-05-07T12:08:13;17.03;;;15.23;;
57663;SDS011;43493;53.098;6.064;2023-05-07T12:10:41;18.80;;;16.03;;
57663;SDS011;43493;53.098;6.064;2023-05-07T12:13:16;19.27;;;16.80;;
57663;SDS011;43493;53.098;6.064;2023-05-07T12:15:43;18.60;;;16.07;;
57663;SDS011;43493;53.098;6.064;2023-05-07T12:18:09;18.33;;;15.57;;
57663;SDS011;43493;53.098;6.064;2023-05-07T12:20:36;17.57;;;15.70;;
57663;SDS011;43493;53.098;6.064;2023-05-07T12:23:02;17.90;;;15.83;;
57663;SDS011;43493;53.098;6.064;2023-05-07T12:25:32;16.93;;;15.13;;
57663;SDS011;43493;53.098;6.064;2023-05-07T12:28:04;19.37;;;14.80;;
57663;SDS011;43493;53.098;6.064;2023-05-07T12:30:39;17.03;;;14.47;;
57663;SDS011;43493;53.098;6.064;2023-05-07T12:33:07;17.53;;;14.83;;
57663;SDS011;43493;53.098;6.064;2023-05-07T12:35:37;17.47;;;15.07;;
57663;SDS011;43493;53.098;6.064;2023-05-07T12:38:11;16.08;;;14.02;;
57663;SDS011;43493;53.098;6.064;2023-05-07T12:40:45;16.38;;;14.65;;
57663;SDS011;43493;53.098;6.064;2023-05-07T12:43:16;17.40;;;15.50;;
57663;SDS011;43493;53.098;6.064;2023-05-07T12:45:47;16.40;;;14.60;;
57663;SDS011;43493;53.098;6.064;2023-05-07T12:48:15;16.50;;;14.57;;
57663;SDS011;43493;53.098;6.064;2023-05-07T12:50:41;13.87;;;12.33;;
57663;SDS011;43493;53.098;6.064;2023-05-07T12:53:08;16.73;;;13.53;;
57663;SDS011;43493;53.098;6.064;2023-05-07T12:55:47;15.63;;;13.93;;
57663;SDS011;43493;53.098;6.064;2023-05-07T12:58:15;15.97;;;13.83;;
57663;SDS011;43493;53.098;6.064;2023-05-07T13:00:42;15.03;;;13.47;;
57663;SDS011;43493;53.098;6.064;2023-05-07T13:03:08;16.13;;;14.43;;
57663;SDS011;43493;53.098;6.064;2023-05-07T13:05:34;16.77;;;13.00;;
57663;SDS011;43493;53.098;6.064;2023-05-07T13:08:00;14.60;;;13.07;;
57663;SDS011;43493;53.098;6.064;2023-05-07T13:10:26;16.47;;;14.63;;
57663;SDS011;43493;53.098;6.064;2023-05-07T13:12:53;16.17;;;14.47;;
57663;SDS011;43493;53.098;6.064;2023-05-07T13:15:19;16.40;;;14.70;;
57663;SDS011;43493;53.098;6.064;2023-05-07T13:17:45;17.13;;;14.27;;
57663;SDS011;43493;53.098;6.064;2023-05-07T13:20:11;15.47;;;13.77;;
57663;SDS011;43493;53.098;6.064;2023-05-07T13:22:40;15.07;;;12.77;;
57663;SDS011;43493;53.098;6.064;2023-05-07T13:25:06;14.17;;;12.73;;
57663;SDS011;43493;53.098;6.064;2023-05-07T13:27:32;14.33;;;12.83;;
57663;SDS011;43493;53.098;6.064;2023-05-07T13:30:02;13.10;;;11.80;;
57663;SDS011;43493;53.098;6.064;2023-05-07T13:32:28;14.50;;;12.40;;
57663;SDS011;43493;53.098;6.064;2023-05-07T13:34:55;15.40;;;12.43;;
57663;SDS011;43493;53.098;6.064;2023-05-07T13:37:21;13.97;;;12.37;;
57663;SDS011;43493;53.098;6.064;2023-05-07T13:39:46;16.93;;;15.13;;
57663;SDS011;43493;53.098;6.064;2023-05-07T13:42:12;15.20;;;13.03;;
57663;SDS011;43493;53.098;6.064;2023-05-07T13:44:38;14.93;;;13.17;;
57663;SDS011;43493;53.098;6.064;2023-05-07T13:47:03;14.60;;;13.10;;
57663;SDS011;43493;53.098;6.064;2023-05-07T13:49:29;14.37;;;12.87;;
57663;SDS011;43493;53.098;6.064;2023-05-07T13:51:55;16.30;;;14.10;;
57663;SDS011;43493;53.098;6.064;2023-05-07T13:54:20;15.30;;;13.23;;
57663;SDS011;43493;53.098;6.064;2023-05-07T13:56:46;14.13;;;12.57;;
57663;SDS011;43493;53.098;6.064;2023-05-07T13:59:12;14.13;;;12.30;;
57663;SDS011;43493;53.098;6.064;2023-05-07T14:01:39;14.57;;;12.43;;
57663;SDS011;43493;53.098;6.064;2023-05-07T14:04:05;20.23;;;12.70;;
57663;SDS011;43493;53.098;6.064;2023-05-07T14:06:31;14.60;;;13.10;;
57663;SDS011;43493;53.098;6.064;2023-05-07T14:08:56;16.10;;;14.40;;
57663;SDS011;43493;53.098;6.064;2023-05-07T14:11:23;16.13;;;14.27;;
57663;SDS011;43493;53.098;6.064;2023-05-07T14:13:48;16.23;;;13.70;;
57663;SDS011;43493;53.098;6.064;2023-05-07T14:16:14;16.50;;;13.90;;
57663;SDS011;43493;53.098;6.064;2023-05-07T14:18:40;16.07;;;14.30;;
57663;SDS011;43493;53.098;6.064;2023-05-07T14:21:06;16.90;;;15.07;;
57663;SDS011;43493;53.098;6.064;2023-05-07T14:23:32;19.47;;;15.63;;
57663;SDS011;43493;53.098;6.064;2023-05-07T14:25:58;15.47;;;13.77;;
57663;SDS011;43493;53.098;6.064;2023-05-07T14:28:24;18.17;;;15.60;;
57663;SDS011;43493;53.098;6.064;2023-05-07T14:30:49;16.37;;;14.50;;
57663;SDS011;43493;53.098;6.064;2023-05-07T14:33:15;16.00;;;14.30;;
57663;SDS011;43493;53.098;6.064;2023-05-07T14:35:42;17.80;;;15.17;;
57663;SDS011;43493;53.098;6.064;2023-05-07T14:38:13;16.40;;;14.47;;
57663;SDS011;43493;53.098;6.064;2023-05-07T14:40:38;16.50;;;14.77;;
57663;SDS011;43493;53.098;6.064;2023-05-07T14:43:04;17.17;;;15.43;;